createdAt,value
2023-12-09T00:01:57.299Z,4.82
2023-12-09T00:04:44.121Z,3.85
2023-12-09T00:07:31.966Z,6.07
2023-12-09T00:10:18.764Z,3.97
2023-12-09T00:13:05.331Z,2.90
2023-12-09T00:15:51.875Z,4.38
2023-12-09T00:18:41.397Z,4.97
2023-12-09T00:21:45.526Z,4.43
2023-12-09T00:24:33.482Z,5.18
2023-12-09T00:27:23.145Z,7.43
2023-12-09T00:30:10.141Z,4.45
2023-12-09T00:33:07.483Z,3.35
2023-12-09T00:35:54.087Z,4.15
2023-12-09T00:38:47.226Z,2.25
2023-12-09T00:41:35.156Z,2.38
2023-12-09T00:44:28.165Z,2.05
2023-12-09T00:47:14.736Z,3.75
2023-12-09T00:50:01.232Z,5.05
2023-12-09T00:52:48.157Z,3.10
2023-12-09T00:55:34.645Z,2.65
2023-12-09T00:58:22.489Z,4.70
2023-12-09T01:01:11.146Z,5.28
2023-12-09T01:03:57.841Z,6.20
2023-12-09T01:06:44.764Z,7.00
2023-12-09T01:09:31.717Z,10.50
2023-12-09T01:12:18.832Z,9.27
2023-12-09T01:15:08.912Z,9.13
2023-12-09T01:17:55.526Z,9.88
2023-12-09T01:20:42.305Z,11.52
2023-12-09T01:23:29.336Z,11.40
2023-12-09T01:26:16.109Z,9.98
2023-12-09T01:29:04.384Z,8.38
2023-12-09T01:31:57.003Z,9.10
2023-12-09T01:34:54.520Z,8.20
2023-12-09T01:37:40.944Z,8.95
2023-12-09T01:40:28.092Z,8.10
2023-12-09T01:43:15.508Z,10.60
2023-12-09T01:46:06.836Z,8.93
2023-12-09T01:48:55.230Z,8.82
2023-12-09T01:51:42.633Z,7.68
2023-12-09T01:54:30.456Z,7.20
2023-12-09T01:57:17.180Z,7.38
2023-12-09T02:00:22.370Z,7.57
2023-12-09T02:03:09.185Z,9.38
2023-12-09T02:05:57.399Z,7.68
2023-12-09T02:08:44.177Z,5.97
2023-12-09T02:11:37.084Z,7.68
2023-12-09T02:14:27.018Z,7.25
2023-12-09T02:17:15.415Z,7.68
2023-12-09T02:20:02.540Z,6.13
2023-12-09T02:22:50.657Z,5.45
2023-12-09T02:25:39.173Z,5.10
2023-12-09T02:28:27.855Z,7.68
2023-12-09T02:31:16.148Z,4.60
2023-12-09T02:34:14.565Z,3.80
2023-12-09T02:37:01.473Z,6.18
2023-12-09T02:39:48.591Z,5.47
2023-12-09T02:42:36.913Z,4.88
2023-12-09T02:45:24.539Z,4.65
2023-12-09T02:48:11.417Z,3.78
2023-12-09T02:50:58.469Z,4.68
2023-12-09T02:53:46.744Z,4.28
2023-12-09T02:56:33.583Z,4.00
2023-12-09T02:59:21.597Z,6.07
2023-12-09T03:02:08.090Z,3.55
2023-12-09T03:04:56.174Z,4.72
2023-12-09T03:07:42.518Z,3.95
2023-12-09T03:10:29.058Z,12.75
2023-12-09T03:13:19.141Z,9.40
2023-12-09T03:16:07.612Z,4.88
2023-12-09T03:18:54.559Z,3.33
2023-12-09T03:21:41.244Z,3.65
2023-12-09T03:24:27.919Z,2.88
2023-12-09T03:27:14.495Z,2.97
2023-12-09T03:30:00.999Z,2.58
2023-12-09T03:32:48.983Z,2.55
2023-12-09T03:35:35.587Z,2.65
2023-12-09T03:38:22.087Z,3.47
2023-12-09T03:41:25.323Z,5.03
2023-12-09T03:44:12.835Z,3.75
2023-12-09T03:46:59.141Z,3.60
2023-12-09T03:49:47.027Z,2.95
2023-12-09T03:52:33.586Z,3.28
2023-12-09T03:55:21.108Z,2.10
2023-12-09T03:58:07.714Z,3.85
2023-12-09T04:00:54.427Z,6.07
2023-12-09T04:03:55.238Z,2.55
2023-12-09T04:06:43.744Z,3.30
2023-12-09T04:09:30.991Z,2.20
2023-12-09T04:12:17.847Z,3.08
2023-12-09T04:15:11.165Z,4.20
2023-12-09T04:17:57.915Z,2.90
2023-12-09T04:20:44.943Z,2.67
2023-12-09T04:23:32.992Z,1.52
2023-12-09T04:26:22.321Z,2.47
2023-12-09T04:29:09.054Z,1.80
2023-12-09T04:31:56.055Z,1.73
2023-12-09T04:34:44.359Z,2.00
2023-12-09T04:37:30.970Z,1.80
2023-12-09T04:40:19.259Z,2.65
2023-12-09T04:43:06.307Z,1.58
2023-12-09T04:45:53.381Z,2.22
2023-12-09T04:48:40.260Z,1.27
2023-12-09T04:51:27.022Z,1.45
2023-12-09T04:54:13.485Z,1.35
2023-12-09T04:57:01.192Z,1.00
2023-12-09T04:59:47.974Z,1.65
2023-12-09T05:02:40.232Z,1.52
2023-12-09T05:05:27.229Z,1.77
2023-12-09T05:08:13.880Z,3.60
2023-12-09T05:11:00.510Z,1.77
2023-12-09T05:13:48.405Z,2.92
2023-12-09T05:16:46.229Z,2.20
2023-12-09T05:19:32.919Z,1.88
2023-12-09T05:22:20.102Z,1.80
2023-12-09T05:25:09.611Z,4.50
2023-12-09T05:27:56.733Z,2.10
2023-12-09T05:30:44.929Z,2.47
2023-12-09T05:33:31.697Z,3.42
2023-12-09T05:36:18.699Z,3.67
2023-12-09T05:39:09.723Z,3.05
2023-12-09T05:41:56.291Z,2.70
2023-12-09T05:44:53.861Z,6.18
2023-12-09T05:47:41.713Z,2.75
2023-12-09T05:50:28.136Z,2.72
2023-12-09T05:53:17.589Z,2.72
2023-12-09T05:56:04.420Z,2.25
2023-12-09T05:58:51.278Z,2.58
2023-12-09T06:01:38.357Z,2.88
2023-12-09T06:04:39.512Z,2.95
2023-12-09T06:07:26.393Z,2.25
2023-12-09T06:10:14.509Z,2.50
2023-12-09T06:13:02.332Z,2.13
2023-12-09T06:15:51.386Z,1.65
2023-12-09T06:18:39.687Z,1.42
2023-12-09T06:21:27.879Z,3.13
2023-12-09T06:24:16.602Z,1.75
2023-12-09T06:27:05.288Z,2.13
2023-12-09T06:30:07.748Z,1.27
2023-12-09T06:32:54.790Z,3.00
2023-12-09T06:35:41.839Z,2.08
2023-12-09T06:38:31.692Z,1.48
2023-12-09T06:41:18.308Z,1.45
2023-12-09T06:44:05.070Z,1.33
2023-12-09T06:46:52.234Z,1.42
2023-12-09T06:49:38.907Z,1.55
2023-12-09T06:52:25.980Z,2.97
2023-12-09T06:55:14.121Z,1.25
2023-12-09T06:58:00.895Z,1.63
2023-12-09T07:00:48.893Z,1.38
2023-12-09T07:03:54.307Z,1.70
2023-12-09T07:06:41.175Z,1.80
2023-12-09T07:09:27.708Z,1.10
2023-12-09T07:12:15.501Z,2.50
2023-12-09T07:15:06.454Z,1.38
2023-12-09T07:18:07.520Z,2.30
2023-12-09T07:20:55.470Z,2.75
2023-12-09T07:23:42.854Z,1.90
2023-12-09T07:26:38.535Z,1.38
2023-12-09T07:29:29.115Z,3.55
2023-12-09T07:32:16.764Z,1.35
2023-12-09T07:35:03.807Z,1.88
2023-12-09T07:37:50.697Z,1.75
2023-12-09T07:40:43.372Z,2.90
2023-12-09T07:43:29.937Z,1.38
2023-12-09T07:46:24.902Z,3.33
2023-12-09T07:49:11.499Z,2.75
2023-12-09T07:52:08.995Z,2.03
2023-12-09T07:55:15.393Z,2.08
2023-12-09T07:58:03.037Z,1.92
2023-12-09T08:00:49.774Z,1.70
2023-12-09T08:03:38.146Z,1.85
2023-12-09T08:06:26.400Z,2.75
2023-12-09T08:09:14.584Z,1.15
2023-12-09T08:12:01.935Z,1.30
2023-12-09T08:14:48.831Z,1.33
2023-12-09T08:17:36.180Z,1.20
2023-12-09T08:20:28.156Z,3.03
2023-12-09T08:23:17.405Z,2.10
2023-12-09T08:26:08.866Z,4.35
2023-12-09T08:28:56.697Z,2.20
2023-12-09T08:31:47.897Z,3.40
2023-12-09T08:34:35.098Z,2.55
2023-12-09T08:37:26.705Z,3.00
2023-12-09T08:40:14.280Z,2.72
2023-12-09T08:43:01.104Z,4.78
2023-12-09T08:45:57.755Z,3.28
2023-12-09T08:48:44.471Z,1.75
2023-12-09T08:51:44.934Z,1.90
2023-12-09T08:54:39.086Z,3.55
2023-12-09T09:01:25.341Z,1.83
2023-12-09T09:04:11.945Z,2.95
2023-12-09T09:06:58.602Z,2.17
2023-12-09T09:09:46.565Z,2.22
2023-12-09T09:12:32.985Z,1.63
2023-12-09T09:15:19.405Z,3.33
2023-12-09T09:18:07.112Z,1.63
2023-12-09T09:20:54.946Z,1.55
2023-12-09T09:23:44.922Z,1.98
2023-12-09T09:26:33.582Z,1.60
2023-12-09T09:29:20.294Z,1.45
2023-12-09T09:32:09.000Z,2.70
2023-12-09T09:34:55.711Z,3.25
2023-12-09T09:37:43.180Z,2.78
2023-12-09T09:40:29.754Z,1.52
2023-12-09T09:43:21.648Z,1.13
2023-12-09T09:46:09.471Z,1.60
2023-12-09T09:48:57.852Z,0.98
2023-12-09T09:51:46.555Z,1.23
2023-12-09T09:54:33.675Z,1.88
2023-12-09T09:57:22.201Z,0.50
2023-12-09T10:00:15.364Z,0.55
2023-12-09T10:03:04.366Z,0.40
2023-12-09T10:05:51.925Z,0.70
2023-12-09T10:08:38.760Z,1.70
2023-12-09T10:11:25.886Z,2.13
2023-12-09T10:14:12.686Z,0.77
2023-12-09T10:17:00.820Z,1.80
2023-12-09T10:19:47.586Z,1.10
2023-12-09T10:22:35.304Z,0.75
2023-12-09T10:25:22.437Z,1.13
2023-12-09T10:28:10.235Z,0.32
2023-12-09T10:30:58.079Z,0.95
2023-12-09T10:33:46.581Z,0.50
2023-12-09T10:36:33.696Z,0.82
2023-12-09T10:39:21.932Z,2.50
2023-12-09T10:42:12.935Z,0.88
2023-12-09T10:45:04.480Z,0.95
2023-12-09T10:47:52.365Z,2.65
2023-12-09T10:50:40.602Z,0.88
2023-12-09T10:53:27.394Z,0.88
2023-12-09T10:56:15.079Z,1.77
2023-12-09T10:59:03.065Z,0.85
2023-12-09T11:01:50.985Z,0.80
2023-12-09T11:04:39.967Z,1.90
2023-12-09T11:07:29.854Z,1.15
2023-12-09T11:10:16.960Z,0.50
2023-12-09T11:13:05.001Z,0.73
2023-12-09T11:15:51.759Z,1.30
2023-12-09T11:18:48.455Z,1.92
2023-12-09T11:21:35.322Z,0.77
2023-12-09T11:24:30.464Z,0.98
2023-12-09T11:27:20.766Z,0.90
2023-12-09T11:30:08.542Z,0.50
2023-12-09T11:32:55.364Z,2.78
2023-12-09T11:35:44.469Z,2.20
2023-12-09T11:38:32.210Z,0.50
2023-12-09T11:41:22.080Z,0.80
2023-12-09T11:44:10.744Z,1.38
2023-12-09T11:46:58.175Z,2.08
2023-12-09T11:49:52.931Z,1.00
2023-12-09T11:52:43.168Z,2.20
2023-12-09T11:55:33.807Z,1.23
2023-12-09T11:58:32.757Z,1.13
2023-12-09T12:01:24.530Z,1.05
2023-12-09T12:04:11.777Z,0.70
2023-12-09T12:06:58.553Z,0.80
2023-12-09T12:09:48.559Z,3.22
2023-12-09T12:12:36.126Z,2.30
2023-12-09T12:15:24.857Z,1.98
2023-12-09T12:18:14.285Z,1.48
2023-12-09T12:21:01.802Z,1.98
2023-12-09T12:23:52.911Z,1.27
2023-12-09T12:26:41.228Z,0.35
2023-12-09T12:29:28.340Z,0.57
2023-12-09T12:32:24.177Z,0.45
2023-12-09T12:35:14.238Z,0.50
2023-12-09T12:38:01.875Z,0.20
2023-12-09T12:40:49.712Z,1.33
2023-12-09T12:43:43.862Z,0.40
2023-12-09T12:46:44.262Z,0.40
2023-12-09T12:49:39.132Z,1.92
2023-12-09T12:52:26.620Z,0.73
2023-12-09T12:55:28.286Z,0.43
2023-12-09T12:58:16.808Z,0.40
2023-12-09T13:01:03.730Z,0.55
2023-12-09T13:03:50.705Z,0.43
2023-12-09T13:06:39.295Z,1.10
2023-12-09T13:09:29.211Z,0.63
2023-12-09T13:12:16.018Z,0.32
2023-12-09T13:15:02.527Z,0.50
2023-12-09T13:17:51.931Z,0.38
2023-12-09T13:20:39.206Z,0.57
2023-12-09T13:23:27.368Z,0.68
2023-12-09T13:26:23.089Z,0.30
2023-12-09T13:29:09.706Z,0.98
2023-12-09T13:31:56.788Z,0.40
2023-12-09T13:34:45.275Z,0.88
2023-12-09T13:37:32.456Z,0.43
2023-12-09T13:40:20.866Z,0.40
2023-12-09T13:43:07.464Z,0.52
2023-12-09T13:45:53.862Z,0.20
2023-12-09T13:48:41.213Z,0.40
2023-12-09T13:51:28.384Z,0.40
2023-12-09T13:54:15.123Z,0.32
2023-12-09T13:57:03.485Z,0.22
2023-12-09T13:59:50.210Z,0.68
2023-12-09T14:02:40.834Z,1.55
2023-12-09T14:05:28.378Z,0.40
2023-12-09T14:08:15.578Z,0.70
2023-12-09T14:11:02.739Z,0.32
2023-12-09T14:13:50.915Z,0.52
2023-12-09T14:16:38.281Z,0.25
2023-12-09T14:19:26.387Z,0.47
2023-12-09T14:22:12.801Z,0.43
2023-12-09T14:25:02.548Z,0.82
2023-12-09T14:27:50.414Z,0.65
2023-12-09T14:30:38.644Z,0.43
2023-12-09T14:33:25.583Z,0.52
2023-12-09T14:36:13.688Z,0.40
2023-12-09T14:39:00.496Z,0.52
2023-12-09T14:41:47.568Z,0.35
2023-12-09T14:44:34.195Z,0.20
2023-12-09T14:47:57.877Z,0.77
2023-12-09T14:50:55.248Z,1.27
2023-12-09T14:53:47.543Z,0.70
2023-12-09T14:56:43.671Z,0.52
2023-12-09T14:59:34.067Z,0.40
2023-12-09T15:02:23.990Z,0.65
2023-12-09T15:05:10.913Z,1.05
2023-12-09T15:07:58.976Z,0.50
2023-12-09T15:10:45.606Z,0.45
2023-12-09T15:13:33.758Z,0.50
2023-12-09T15:16:20.271Z,0.45
2023-12-09T15:19:08.192Z,0.45
2023-12-09T15:21:55.405Z,0.28
2023-12-09T15:24:47.207Z,0.77
2023-12-09T15:27:37.625Z,0.73
2023-12-09T15:30:40.532Z,0.63
2023-12-09T15:33:27.044Z,0.30
2023-12-09T15:36:21.977Z,0.90
2023-12-09T15:39:08.622Z,0.15
2023-12-09T15:41:57.239Z,0.85
2023-12-09T15:44:44.560Z,0.35
2023-12-09T15:47:31.321Z,0.50
2023-12-09T15:50:27.781Z,0.28
2023-12-09T15:53:14.928Z,0.90
2023-12-09T15:56:01.739Z,0.20
2023-12-09T15:59:02.020Z,0.63
2023-12-09T16:01:52.969Z,0.60
2023-12-09T16:04:40.561Z,5.10
2023-12-09T16:07:39.367Z,0.57
2023-12-09T16:10:26.024Z,0.93
2023-12-09T16:13:14.254Z,0.30
2023-12-09T16:16:09.271Z,0.28
2023-12-09T16:22:39.969Z,0.52
2023-12-09T16:25:28.404Z,0.57
2023-12-09T16:28:15.176Z,0.38
2023-12-09T16:31:04.502Z,0.20
2023-12-09T16:33:56.178Z,0.38
2023-12-09T16:36:43.469Z,0.52
2023-12-09T16:39:33.730Z,0.30
2023-12-09T16:42:23.536Z,0.40
2023-12-09T16:45:12.519Z,0.57
2023-12-09T16:48:01.569Z,0.20
2023-12-09T16:50:49.850Z,0.35
2023-12-09T16:53:36.513Z,0.38
2023-12-09T16:56:26.776Z,0.32
2023-12-09T16:59:15.267Z,0.45
2023-12-09T17:02:01.734Z,0.98
2023-12-09T17:04:51.214Z,0.30
2023-12-09T17:07:41.206Z,0.63
2023-12-09T17:10:28.602Z,0.50
2023-12-09T17:13:15.074Z,0.50
2023-12-09T17:16:03.078Z,0.40
2023-12-09T17:18:50.101Z,0.40
2023-12-09T17:21:37.432Z,0.60
2023-12-09T17:24:26.021Z,0.38
2023-12-09T17:27:13.014Z,0.38
2023-12-09T17:30:03.587Z,0.75
2023-12-09T17:32:51.745Z,0.50
2023-12-09T17:35:38.649Z,0.50
2023-12-09T17:38:25.306Z,0.65
2023-12-09T17:41:16.668Z,0.85
2023-12-09T17:44:08.625Z,2.35
2023-12-09T17:47:10.807Z,1.65
2023-12-09T17:49:57.414Z,1.33
2023-12-09T17:52:46.091Z,0.47
2023-12-09T17:55:35.050Z,0.63
2023-12-09T17:58:44.322Z,1.40
2023-12-09T18:01:32.686Z,0.95
2023-12-09T18:04:19.544Z,0.80
2023-12-09T18:07:08.289Z,1.10
2023-12-09T18:09:55.101Z,1.65
2023-12-09T18:12:41.892Z,0.63
2023-12-09T18:15:32.392Z,1.05
2023-12-09T18:18:19.064Z,0.65
2023-12-09T18:21:05.819Z,1.02
2023-12-09T18:23:52.697Z,0.80
2023-12-09T18:26:40.431Z,0.57
2023-12-09T18:34:04.030Z,0.20
2023-12-09T18:36:51.002Z,0.20
2023-12-09T18:44:17.581Z,0.25
2023-12-09T18:47:04.623Z,0.50
2023-12-09T18:49:53.645Z,0.40
2023-12-09T18:52:40.523Z,0.30
2023-12-09T19:00:05.350Z,0.63
2023-12-09T19:30:18.896Z,0.30
2023-12-09T19:33:05.636Z,0.08
2023-12-09T19:35:52.205Z,0.45
2023-12-09T19:38:39.330Z,0.52
2023-12-09T19:41:27.688Z,0.13
2023-12-09T19:44:14.167Z,0.30
2023-12-09T19:47:01.181Z,0.20
2023-12-09T19:49:48.356Z,0.10
2023-12-09T19:52:36.532Z,0.68
2023-12-09T19:55:23.200Z,0.28
2023-12-09T19:58:11.621Z,0.20
2023-12-09T20:00:58.743Z,0.25
2023-12-09T20:07:14.361Z,0.20
2023-12-09T20:10:00.557Z,0.52
2023-12-09T20:12:48.314Z,0.20
2023-12-09T20:15:36.285Z,0.77
2023-12-09T20:18:22.677Z,0.40
2023-12-09T20:21:09.313Z,0.75
2023-12-09T20:23:55.905Z,0.00
2023-12-09T20:26:42.187Z,0.10
2023-12-09T20:29:28.444Z,0.10
2023-12-09T20:32:16.217Z,0.00
2023-12-09T20:35:02.766Z,0.17
2023-12-09T20:37:49.218Z,0.13
2023-12-09T20:40:35.872Z,0.13
2023-12-09T20:43:22.143Z,0.30
2023-12-09T20:46:08.551Z,0.30
2023-12-09T20:48:56.545Z,0.40
2023-12-09T20:51:45.925Z,1.13
2023-12-09T20:54:32.262Z,0.35
2023-12-09T20:57:18.771Z,0.32
2023-12-09T21:00:06.630Z,0.70
2023-12-09T21:02:53.378Z,0.35
2023-12-09T21:05:42.314Z,0.57
2023-12-09T21:08:28.564Z,0.35
2023-12-09T21:11:15.871Z,0.40
2023-12-09T21:14:02.453Z,0.95
2023-12-09T21:16:48.870Z,0.77
2023-12-09T21:19:36.296Z,0.43
2023-12-09T21:22:25.270Z,0.32
2023-12-09T21:25:12.102Z,0.20
2023-12-09T21:28:00.369Z,0.70
2023-12-09T21:30:46.903Z,0.43
2023-12-09T21:33:33.488Z,1.60
2023-12-09T21:36:19.842Z,0.40
2023-12-09T21:39:07.716Z,0.30
2023-12-09T21:41:54.040Z,0.60
2023-12-09T21:44:40.410Z,1.02
2023-12-09T21:47:28.516Z,0.45
2023-12-09T21:50:15.560Z,0.32
2023-12-09T21:53:02.041Z,0.52
2023-12-09T21:55:49.742Z,0.32
2023-12-09T21:58:36.678Z,0.28
2023-12-09T22:01:23.018Z,0.73
2023-12-09T22:04:09.658Z,0.30
2023-12-09T22:06:56.321Z,0.80
2023-12-09T22:09:42.770Z,0.10
2023-12-09T22:12:32.462Z,0.35
2023-12-09T22:15:21.086Z,0.38
2023-12-09T22:18:07.952Z,0.25
2023-12-09T22:20:55.517Z,0.43
2023-12-09T22:23:42.302Z,0.63
2023-12-09T22:26:29.065Z,1.40
2023-12-09T22:29:16.715Z,0.10
2023-12-09T22:32:03.583Z,0.47
2023-12-09T22:34:50.644Z,0.65
2023-12-09T22:37:40.681Z,0.50
2023-12-09T22:40:27.155Z,0.32
2023-12-09T22:43:13.463Z,0.20
2023-12-09T22:46:01.103Z,0.52
2023-12-09T22:48:47.977Z,0.50
2023-12-09T22:51:35.834Z,0.15
2023-12-09T22:54:22.551Z,0.25
2023-12-09T22:57:10.300Z,0.75
2023-12-09T22:59:56.842Z,0.25
2023-12-09T23:02:44.556Z,0.85
2023-12-09T23:05:30.940Z,0.70
2023-12-09T23:08:17.285Z,0.73
2023-12-09T23:11:03.643Z,0.60
2023-12-09T23:13:49.991Z,0.77
2023-12-09T23:16:36.526Z,0.22
2023-12-09T23:19:24.529Z,0.20
2023-12-09T23:22:10.908Z,0.90
2023-12-09T23:24:57.663Z,0.40
2023-12-09T23:27:44.497Z,0.70
2023-12-09T23:30:31.417Z,0.43
2023-12-09T23:33:18.140Z,1.08
2023-12-09T23:36:06.368Z,1.15
2023-12-09T23:38:52.745Z,0.13
2023-12-09T23:41:39.099Z,0.52
2023-12-09T23:44:25.480Z,0.82
2023-12-09T23:47:11.856Z,0.47
2023-12-09T23:49:58.856Z,0.55
2023-12-09T23:52:47.023Z,0.28
2023-12-09T23:55:33.316Z,0.77
2023-12-09T23:58:19.520Z,1.10
